Baptist Corner, Massachusetts
Current Conditions -  °F | °C
As of 9:52 AM on Wednesday 22 Oct 2014 (Local Time) from KAQW Reporting Station
Overcast Overcast  
Wind Chill: 51°   Ceiling: 1900
Heat Index: 51°   Visibility: 10mi
Dew Point: 45°   Wind: 7mph
Humidity: 80%   Direction: NA
Pressure: 30.07"   Gusts: NA
Location:  42.6026°N, 72.7442°W
Report Text: KAQW 221352Z AUTO VRB06KT 10SM OVC019 11/07 A3007 RMK AO2 SLP185 T01060072
Loading
Personal Weather Stations






























Interactive Weather Map
Tropical Storm Tracking
New forecast layout! Learn more

10-Day Weather Forecast

Advertisements
Track Severe Weather on mobile